Time;durP1;ratioP1;P1;durP2;ratioP2;P2;SDS_P1;SDS_P2;PMS_P1;PMS_P2;Temp;Humidity;BMP_temperature;BMP_pressure;BME280_temperature;BME280_humidity;BME280_pressure;Samples;Min_cycle;Max_cycle;Signal;HPM_P1;HPM_P2
2022/11/17 00:01:37;;;;;;;;;;;;;;;10.80;85.33;98641.63;5115406;28;20333;-88
2022/11/17 00:04:03;;;;;;;;;;;;;;;11.01;83.61;98642.69;5114428;28;19911;-88
2022/11/17 00:06:28;;;;;;;;;;;;;;;11.06;83.15;98646.91;5114682;28;19923;-88
2022/11/17 00:08:53;;;;;;;;;;;;;;;11.14;82.85;98653.69;5115123;28;19916;-87
2022/11/17 00:11:19;;;;;;;;;;;;;;;11.17;82.49;98643.91;5114494;28;19999;-88
2022/11/17 00:16:28;;;;;;;;;;;;;;;11.23;81.36;98633.16;5114542;28;20363;-86
2022/11/17 00:21:37;;;;;;;;;;;;;;;11.21;81.37;98637.59;5114245;28;19973;-87
2022/11/17 00:27:06;;;;;;;;;;;;;;;11.23;81.52;98637.53;5114316;28;19935;-88
2022/11/17 00:29:31;;;;;;;;;;;;;;;11.20;81.30;98633.25;5113857;28;20369;-90
2022/11/17 00:34:40;;;;;;;;;;;;;;;10.99;81.92;98634.84;5114050;28;19964;-87
2022/11/17 00:37:07;;;;;;;;;;;;;;;11.07;82.12;98634.56;5114537;28;20420;-88
2022/11/17 00:39:33;;;;;;;;;;;;;;;10.98;82.25;98638.38;5094868;28;20284;-87
2022/11/17 00:41:58;;;;;;;;;;;;;;;10.75;83.71;98633.88;5113817;28;19916;-87
2022/11/17 00:44:24;;;;;;;;;;;;;;;10.94;82.69;98631.50;5114007;28;19968;-88
2022/11/17 00:46:49;;;;;;;;;;;;;;;11.11;82.08;98633.56;5114096;28;19916;-88
2022/11/17 00:52:17;;;;;;;;;;;;;;;11.26;81.98;98640.09;5114094;28;19960;-88
2022/11/17 00:54:43;;;;;;;;;;;;;;;11.36;80.88;98635.38;5113341;28;20333;-88
2022/11/17 00:57:08;;;;;;;;;;;;;;;11.33;80.48;98632.84;5113739;28;19915;-87
2022/11/17 00:59:33;;;;;;;;;;;;;;;11.27;81.32;98626.81;5112842;28;20011;-88
2022/11/17 01:01:59;;;;;;;;;;;;;;;11.24;81.31;98629.56;5112028;28;19912;-88
2022/11/17 01:04:24;;;;;;;;;;;;;;;11.34;81.03;98626.63;5111897;28;19911;-88
2022/11/17 01:06:49;;;;;;;;;;;;;;;11.31;80.68;98622.31;5112297;28;19958;-87
2022/11/17 01:09:16;;;;;;;;;;;;;;;11.41;80.70;98622.84;5111986;28;19911;-88
2022/11/17 01:11:42;;;;;;;;;;;;;;;11.50;79.97;98632.22;5095268;28;19911;-88
2022/11/17 01:14:10;;;;;;;;;;;;;;;11.38;80.41;98625.59;5113406;28;20072;-86
2022/11/17 01:19:38;;;;;;;;;;;;;;;11.51;80.24;98621.63;5113706;28;19918;-86
2022/11/17 01:25:06;;;;;;;;;;;;;;;11.44;79.96;98605.09;5113404;28;20085;-87
2022/11/17 01:27:31;;;;;;;;;;;;;;;11.45;80.03;98606.84;5112877;28;20434;-86
2022/11/17 01:29:57;;;;;;;;;;;;;;;11.65;79.25;98607.91;5113012;28;19912;-88
2022/11/17 01:32:22;;;;;;;;;;;;;;;11.53;79.58;98606.56;5111783;28;19916;-87
2022/11/17 01:37:50;;;;;;;;;;;;;;;11.49;79.66;98585.59;5113101;28;19938;-87
2022/11/17 01:40:15;;;;;;;;;;;;;;;11.41;79.45;98591.16;5113020;28;20371;-87
2022/11/17 01:42:41;;;;;;;;;;;;;;;11.38;79.87;98593.91;5111914;28;20002;-87
2022/11/17 01:45:20;;;;;;;;;;;;;;;11.45;79.14;98598.91;5112865;28;19973;-88
2022/11/17 01:47:51;;;;;;;;;;;;;;;11.49;78.91;98589.09;5113469;28;19919;-87
2022/11/17 01:50:26;;;;;;;;;;;;;;;11.23;79.65;98590.03;5113235;28;19912;-88
2022/11/17 01:52:54;;;;;;;;;;;;;;;11.12;80.54;98585.13;5112845;28;19912;-88
2022/11/17 01:55:20;;;;;;;;;;;;;;;11.04;81.27;98595.94;5113786;28;19961;-87
2022/11/17 02:00:48;;;;;;;;;;;;;;;11.15;80.50;98595.56;5112903;28;19962;-88
2022/11/17 02:03:14;;;;;;;;;;;;;;;11.18;80.75;98603.38;5112443;28;19947;-88
2022/11/17 02:06:18;;;;;;;;;;;;;;;11.03;81.67;98596.88;5113132;28;20097;-88
2022/11/17 02:08:45;;;;;;;;;;;;;;;10.52;84.61;98600.34;5033042;28;20283;-88
2022/11/17 02:14:12;;;;;;;;;;;;;;;10.64;84.84;98601.72;5050290;28;19920;-87
2022/11/17 02:16:38;;;;;;;;;;;;;;;10.57;85.09;98594.00;5049574;28;19913;-87
2022/11/17 02:19:03;;;;;;;;;;;;;;;10.72;85.05;98575.94;5053542;28;19913;-87
2022/11/17 02:21:43;;;;;;;;;;;;;;;10.90;84.12;98588.50;5112542;28;20003;-87
2022/11/17 02:24:11;;;;;;;;;;;;;;;11.06;83.30;98577.44;5112740;28;19908;-87
2022/11/17 02:26:43;;;;;;;;;;;;;;;10.98;82.92;98579.47;5112427;28;19955;-89
2022/11/17 02:29:11;;;;;;;;;;;;;;;11.10;82.64;98584.34;5112538;28;20003;-89
2022/11/17 02:31:41;;;;;;;;;;;;;;;11.06;82.56;98578.31;5112792;28;19911;-89
2022/11/17 02:34:25;;;;;;;;;;;;;;;11.04;82.75;98566.91;5112449;28;19908;-89
2022/11/17 02:36:56;;;;;;;;;;;;;;;10.96;83.26;98562.84;5110867;28;19919;-89
2022/11/17 02:45:41;;;;;;;;;;;;;;;11.19;81.80;98559.41;5112449;28;19966;-88
2022/11/17 02:48:11;;;;;;;;;;;;;;;11.15;81.77;98560.41;5094159;28;19911;-87
2022/11/17 02:50:37;;;;;;;;;;;;;;;11.18;80.90;98569.06;5112217;28;19919;-87
2022/11/17 02:53:02;;;;;;;;;;;;;;;11.13;80.85;98571.03;5112197;28;19967;-87
2022/11/17 02:55:32;;;;;;;;;;;;;;;11.05;80.63;98566.00;5112231;28;20006;-87
2022/11/17 02:57:57;;;;;;;;;;;;;;;10.85;81.46;98555.31;5112340;28;20004;-87
2022/11/17 03:00:22;;;;;;;;;;;;;;;10.96;81.10;98550.50;5112118;28;19972;-87
2022/11/17 03:02:54;;;;;;;;;;;;;;;10.86;80.59;98549.97;5116016;28;20292;-87
2022/11/17 03:05:28;;;;;;;;;;;;;;;10.82;80.43;98542.22;5116332;28;19912;-87
2022/11/17 03:08:00;;;;;;;;;;;;;;;10.73;80.52;98538.97;5115822;28;19911;-87
2022/11/17 03:10:34;;;;;;;;;;;;;;;10.68;80.57;98538.25;5115588;28;19918;-88
2022/11/17 03:13:18;;;;;;;;;;;;;;;10.67;80.43;98539.16;5115702;28;20002;-87
2022/11/17 03:15:55;;;;;;;;;;;;;;;10.68;79.83;98543.53;5115695;28;19935;-86
2022/11/17 03:18:27;;;;;;;;;;;;;;;10.51;80.53;98548.53;5115754;28;20064;-87
2022/11/17 03:24:04;;;;;;;;;;;;;;;10.34;80.49;98538.53;5115896;28;19964;-87
2022/11/17 03:26:33;;;;;;;;;;;;;;;10.29;80.44;98548.34;5115361;28;19908;-88
2022/11/17 03:29:00;;;;;;;;;;;;;;;10.15;80.71;98547.00;5097515;28;20384;-87
2022/11/17 03:34:32;;;;;;;;;;;;;;;10.03;80.36;98542.09;5115421;28;19968;-87
2022/11/17 03:37:00;;;;;;;;;;;;;;;10.00;80.40;98550.09;5115847;28;19950;-87
2022/11/17 03:39:36;;;;;;;;;;;;;;;10.00;81.19;98553.59;5115026;28;20429;-88
2022/11/17 03:42:07;;;;;;;;;;;;;;;10.08;81.13;98545.44;5115181;28;20276;-88
2022/11/17 03:44:35;;;;;;;;;;;;;;;9.90;82.89;98553.91;5115177;28;19911;-87
2022/11/17 03:47:01;;;;;;;;;;;;;;;10.14;81.67;98544.41;5114719;28;19979;-87
2022/11/17 03:49:45;;;;;;;;;;;;;;;10.13;82.12;98550.56;5114994;28;19912;-88
2022/11/17 03:52:11;;;;;;;;;;;;;;;10.10;81.59;98554.19;5114708;28;19911;-88
2022/11/17 03:57:52;;;;;;;;;;;;;;;10.06;82.72;98552.53;5114921;28;19972;-87
2022/11/17 04:00:18;;;;;;;;;;;;;;;9.92;83.64;98549.50;5114303;28;20288;-86
2022/11/17 04:02:45;;;;;;;;;;;;;;;10.11;82.77;98557.69;5114924;28;19951;-87
2022/11/17 04:08:36;;;;;;;;;;;;;;;10.00;83.92;98544.84;5114747;28;19968;-86
2022/11/17 04:20:18;;;;;;;;;;;;;;;10.04;85.40;98538.56;5114529;28;19980;-88
2022/11/17 04:22:43;;;;;;;;;;;;;;;10.04;85.06;98528.03;5114588;28;19964;-85
2022/11/17 04:25:08;;;;;;;;;;;;;;;10.19;83.94;98524.03;5114832;28;19915;-87
2022/11/17 04:30:36;;;;;;;;;;;;;;;10.21;83.86;98523.06;5114629;28;19914;-88
2022/11/17 04:33:02;;;;;;;;;;;;;;;10.33;83.30;98523.63;5095343;28;20409;-88
2022/11/17 04:35:29;;;;;;;;;;;;;;;10.33;83.25;98523.63;5114418;28;19912;-88
2022/11/17 04:37:54;;;;;;;;;;;;;;;10.24;83.44;98527.41;5114193;28;19961;-87
2022/11/17 04:40:19;;;;;;;;;;;;;;;10.37;83.12;98526.09;5113857;28;19912;-84
2022/11/17 04:42:45;;;;;;;;;;;;;;;10.43;83.00;98517.13;5113944;28;19912;-84
2022/11/17 04:45:10;;;;;;;;;;;;;;;10.60;81.81;98516.56;5113780;28;20007;-85
2022/11/17 04:47:35;;;;;;;;;;;;;;;10.41;82.65;98508.44;5113624;28;19912;-84
2022/11/17 04:50:00;;;;;;;;;;;;;;;10.46;82.85;98500.38;5114268;28;20284;-84
2022/11/17 04:52:26;;;;;;;;;;;;;;;10.58;81.59;98489.38;5114282;28;19919;-86
2022/11/17 04:54:51;;;;;;;;;;;;;;;10.48;81.58;98491.47;5113473;28;20038;-88
2022/11/17 04:57:16;;;;;;;;;;;;;;;10.33;81.93;98482.31;5112484;28;19912;-84
2022/11/17 04:59:42;;;;;;;;;;;;;;;10.30;82.51;98478.88;5113641;28;20412;-85
2022/11/17 05:02:07;;;;;;;;;;;;;;;10.47;81.84;98473.06;5113970;28;19911;-88
2022/11/17 05:07:16;;;;;;;;;;;;;;;10.17;82.21;98471.38;5113222;28;19961;-87
2022/11/17 05:09:41;;;;;;;;;;;;;;;10.19;82.48;98468.69;5113866;28;20286;-90
2022/11/17 05:14:51;;;;;;;;;;;;;;;10.25;82.40;98475.53;5113677;28;19935;-88
2022/11/17 05:17:16;;;;;;;;;;;;;;;10.22;82.05;98484.41;5113653;28;19911;-89
2022/11/17 05:19:45;;;;;;;;;;;;;;;10.28;81.85;98486.81;5113606;28;19966;-89
2022/11/17 05:24:56;;;;;;;;;;;;;;;10.35;81.99;98477.00;5112690;28;19919;-87
2022/11/17 05:27:22;;;;;;;;;;;;;;;10.35;81.71;98469.09;5095377;28;20308;-90
2022/11/17 05:29:47;;;;;;;;;;;;;;;10.34;82.10;98467.34;5113009;28;20288;-89
2022/11/17 05:32:12;;;;;;;;;;;;;;;10.38;82.21;98482.16;5113148;28;20081;-88
2022/11/17 05:34:38;;;;;;;;;;;;;;;10.45;82.31;98491.56;5113273;28;19912;-89
2022/11/17 05:37:03;;;;;;;;;;;;;;;10.45;81.79;98486.31;5112010;28;19916;-86
2022/11/17 05:39:28;;;;;;;;;;;;;;;10.41;82.18;98479.44;5112600;28;20006;-87
2022/11/17 05:41:55;;;;;;;;;;;;;;;10.33;82.72;98491.97;5113482;28;19911;-94
2022/11/17 05:44:20;;;;;;;;;;;;;;;10.35;83.33;98506.84;5078894;28;19961;-94
2022/11/17 05:46:45;;;;;;;;;;;;;;;10.38;83.03;98500.63;5113289;28;19919;-94
2022/11/17 05:49:11;;;;;;;;;;;;;;;10.44;82.50;98510.97;5112062;28;19935;-94
2022/11/17 05:51:37;;;;;;;;;;;;;;;10.59;82.51;98511.34;5111927;28;20379;-94
2022/11/17 05:54:03;;;;;;;;;;;;;;;10.36;83.42;98505.06;5112318;28;19912;-93
2022/11/17 05:56:32;;;;;;;;;;;;;;;10.58;82.75;98494.66;5114095;28;19912;-94
2022/11/17 05:59:05;;;;;;;;;;;;;;;10.64;82.54;98507.63;5112602;28;19941;-92
2022/11/17 06:01:31;;;;;;;;;;;;;;;10.70;82.17;98506.56;5113176;28;19912;-91
2022/11/17 06:04:00;;;;;;;;;;;;;;;10.70;82.30;98514.47;5112736;28;20006;-90
2022/11/17 06:06:26;;;;;;;;;;;;;;;10.65;82.50;98519.06;5094711;28;19917;-89
2022/11/17 06:08:51;;;;;;;;;;;;;;;10.78;82.58;98517.69;5112899;28;19918;-90
2022/11/17 06:11:18;;;;;;;;;;;;;;;10.89;82.04;98514.69;5112884;28;19964;-89
2022/11/17 06:13:43;;;;;;;;;;;;;;;10.72;83.14;98526.69;5112558;28;19916;-89
2022/11/17 06:16:10;;;;;;;;;;;;;;;10.68;84.27;98521.59;5113053;28;20003;-89
2022/11/17 06:18:58;;;;;;;;;;;;;;;10.92;84.15;98507.53;5112908;28;20006;-89
2022/11/17 06:21:24;;;;;;;;;;;;;;;11.13;83.20;98518.25;5094277;28;20364;-90
2022/11/17 06:23:49;;;;;;;;;;;;;;;11.23;82.94;98519.63;5112554;28;20000;-89
2022/11/17 06:26:15;;;;;;;;;;;;;;;11.05;83.66;98528.22;5112571;28;19912;-90
2022/11/17 06:28:42;;;;;;;;;;;;;;;11.21;84.12;98524.09;5113076;28;20384;-89
2022/11/17 06:31:08;;;;;;;;;;;;;;;11.25;84.60;98531.00;5112508;28;19947;-89
2022/11/17 06:33:34;;;;;;;;;;;;;;;11.18;85.15;98534.75;5094131;28;19959;-90
2022/11/17 06:36:01;;;;;;;;;;;;;;;11.06;85.02;98525.53;5094828;28;19962;-89
2022/11/17 06:38:28;;;;;;;;;;;;;;;11.21;84.59;98518.81;5116913;28;19912;-90
2022/11/17 06:40:53;;;;;;;;;;;;;;;11.34;84.50;98518.38;5116565;28;20284;-89
2022/11/17 06:43:18;;;;;;;;;;;;;;;11.35;84.38;98528.03;5116108;28;19912;-89
2022/11/17 06:45:45;;;;;;;;;;;;;;;11.25;84.78;98530.16;5116659;28;19916;-89
2022/11/17 06:48:11;;;;;;;;;;;;;;;11.17;84.80;98533.06;5116160;28;19911;-89
2022/11/17 06:50:36;;;;;;;;;;;;;;;11.13;85.15;98523.53;5116675;28;19919;-89
2022/11/17 06:53:06;;;;;;;;;;;;;;;11.18;85.37;98513.66;5116114;28;19912;-89
2022/11/17 06:55:31;;;;;;;;;;;;;;;11.24;84.92;98508.16;5097972;28;19919;-88
2022/11/17 06:58:00;;;;;;;;;;;;;;;11.26;85.11;98500.16;5115861;28;20304;-87
2022/11/17 07:00:27;;;;;;;;;;;;;;;11.44;84.31;98488.06;5116177;28;20399;-87
2022/11/17 07:02:53;;;;;;;;;;;;;;;11.37;84.53;98492.72;5116120;28;19912;-87
2022/11/17 07:05:19;;;;;;;;;;;;;;;11.47;84.09;98491.44;5115695;28;20002;-91
2022/11/17 07:07:44;;;;;;;;;;;;;;;11.49;84.56;98485.25;5115695;28;20002;-92
2022/11/17 07:10:09;;;;;;;;;;;;;;;11.59;84.06;98474.28;5116076;28;19912;-90
2022/11/17 07:12:35;;;;;;;;;;;;;;;11.60;83.29;98446.09;5116216;28;20053;-90
2022/11/17 07:15:00;;;;;;;;;;;;;;;11.53;84.24;98445.47;5114242;28;19977;-89
2022/11/17 07:17:25;;;;;;;;;;;;;;;11.51;85.12;98436.75;5115891;28;19937;-87
2022/11/17 07:19:53;;;;;;;;;;;;;;;11.61;84.40;98439.88;5116125;28;19970;-87
2022/11/17 07:22:18;;;;;;;;;;;;;;;11.61;85.44;98443.38;5115613;28;20279;-86
2022/11/17 07:24:43;;;;;;;;;;;;;;;11.63;84.77;98453.88;5115385;28;19918;-86
2022/11/17 07:27:09;;;;;;;;;;;;;;;11.59;85.67;98460.22;5115378;28;20300;-86
2022/11/17 07:29:34;;;;;;;;;;;;;;;11.65;85.97;98470.56;5115146;28;20002;-86
2022/11/17 07:32:00;;;;;;;;;;;;;;;11.73;85.85;98470.25;5115355;28;19912;-88
2022/11/17 07:34:25;;;;;;;;;;;;;;;11.76;85.52;98468.34;5115308;28;20357;-87
2022/11/17 07:36:50;;;;;;;;;;;;;;;11.80;85.70;98462.03;5115210;28;20376;-87
2022/11/17 07:39:15;;;;;;;;;;;;;;;11.87;85.12;98464.44;5115365;28;19912;-86
2022/11/17 07:41:41;;;;;;;;;;;;;;;11.86;85.12;98452.97;5115057;28;19919;-86
2022/11/17 07:44:06;;;;;;;;;;;;;;;11.90;84.94;98459.03;5096828;28;19912;-87
2022/11/17 07:46:31;;;;;;;;;;;;;;;11.55;87.54;98482.38;5114973;28;19920;-87
2022/11/17 07:48:57;;;;;;;;;;;;;;;11.71;87.90;98491.44;5115185;28;19920;-86
2022/11/17 07:51:22;;;;;;;;;;;;;;;11.81;87.52;98492.78;5115208;28;19912;-88
2022/11/17 07:53:47;;;;;;;;;;;;;;;11.79;87.29;98492.00;5115174;28;19916;-87
2022/11/17 07:56:13;;;;;;;;;;;;;;;11.75;87.76;98497.47;5113566;28;19911;-87
2022/11/17 07:58:39;;;;;;;;;;;;;;;11.79;87.68;98483.22;5114495;28;19918;-87
2022/11/17 08:01:05;;;;;;;;;;;;;;;11.97;87.42;98494.88;5115279;28;19912;-87
2022/11/17 08:03:31;;;;;;;;;;;;;;;11.96;87.88;98485.22;5114583;28;19982;-88
2022/11/17 08:05:59;;;;;;;;;;;;;;;12.07;87.03;98490.94;5114609;28;20411;-87
2022/11/17 08:08:25;;;;;;;;;;;;;;;11.80;87.53;98496.38;5115120;28;19916;-89
2022/11/17 08:10:50;;;;;;;;;;;;;;;11.54;88.98;98499.13;5114947;28;19942;-87
2022/11/17 08:13:15;;;;;;;;;;;;;;;11.70;89.42;98488.88;5114856;28;19912;-87
2022/11/17 08:15:40;;;;;;;;;;;;;;;11.62;89.19;98491.81;5114581;28;20361;-87
2022/11/17 08:18:06;;;;;;;;;;;;;;;11.83;88.54;98498.91;5113973;28;19918;-88
2022/11/17 08:20:31;;;;;;;;;;;;;;;11.84;89.04;98499.75;5114719;28;20064;-87
2022/11/17 08:22:56;;;;;;;;;;;;;;;11.65;89.25;98507.53;5114834;28;19915;-88
2022/11/17 08:25:23;;;;;;;;;;;;;;;11.45;89.71;98517.06;5114663;28;20578;-87
2022/11/17 08:27:50;;;;;;;;;;;;;;;11.62;89.87;98524.34;5114912;28;19915;-88
2022/11/17 08:30:16;;;;;;;;;;;;;;;11.69;88.64;98513.56;5114149;28;19907;-88
2022/11/17 08:32:45;;;;;;;;;;;;;;;11.35;90.08;98517.47;5114211;28;20326;-87
2022/11/17 08:35:10;;;;;;;;;;;;;;;11.48;90.80;98526.66;5113919;28;19912;-85
2022/11/17 08:37:38;;;;;;;;;;;;;;;11.37;91.11;98531.44;5113784;28;19911;-84
2022/11/17 08:40:04;;;;;;;;;;;;;;;11.46;90.66;98536.41;5114141;28;19961;-86
2022/11/17 08:42:29;;;;;;;;;;;;;;;11.49;91.09;98541.56;5113914;28;20372;-84
2022/11/17 08:44:55;;;;;;;;;;;;;;;11.63;90.09;98551.63;5113978;28;19954;-85
2022/11/17 08:47:20;;;;;;;;;;;;;;;11.53;90.44;98547.63;5114467;28;20391;-85
2022/11/17 08:49:45;;;;;;;;;;;;;;;11.14;92.33;98556.94;5114513;28;20378;-86
2022/11/17 08:52:10;;;;;;;;;;;;;;;11.26;93.54;98563.53;5113770;28;19912;-85
2022/11/17 08:54:36;;;;;;;;;;;;;;;11.24;93.17;98565.38;5095357;28;20017;-88
2022/11/17 08:57:01;;;;;;;;;;;;;;;10.97;94.94;98576.00;5114272;28;19911;-87
2022/11/17 08:59:26;;;;;;;;;;;;;;;11.10;96.27;98601.03;5112864;28;19911;-86
2022/11/17 09:01:52;;;;;;;;;;;;;;;11.04;96.78;98617.06;5114081;28;19922;-86
2022/11/17 09:04:18;;;;;;;;;;;;;;;10.89;98.44;98628.13;5113658;28;19915;-84
2022/11/17 09:06:43;;;;;;;;;;;;;;;10.95;98.88;98640.28;5113149;28;19930;-86
2022/11/17 09:09:08;;;;;;;;;;;;;;;10.81;100.00;98656.56;5114014;28;19911;-86
2022/11/17 09:11:34;;;;;;;;;;;;;;;11.07;100.00;98674.16;5113389;28;19915;-89
2022/11/17 09:13:59;;;;;;;;;;;;;;;10.87;100.00;98670.41;5113096;28;19955;-86
2022/11/17 09:16:24;;;;;;;;;;;;;;;10.75;100.00;98674.31;5113689;28;19912;-87
2022/11/17 09:18:56;;;;;;;;;;;;;;;10.63;100.00;98676.44;5113229;28;19912;-86
2022/11/17 09:21:21;;;;;;;;;;;;;;;10.94;100.00;98671.06;5113714;28;19998;-86
2022/11/17 09:23:47;;;;;;;;;;;;;;;10.91;100.00;98666.75;5113437;28;19998;-85
2022/11/17 09:26:13;;;;;;;;;;;;;;;11.07;100.00;98658.34;5113543;28;19916;-88
2022/11/17 09:28:39;;;;;;;;;;;;;;;11.16;100.00;98650.09;5113731;28;19915;-86
2022/11/17 09:31:05;;;;;;;;;;;;;;;11.20;100.00;98648.22;5113724;28;19965;-87
2022/11/17 09:33:30;;;;;;;;;;;;;;;11.29;100.00;98630.31;5112975;28;19912;-87
2022/11/17 09:35:56;;;;;;;;;;;;;;;11.35;100.00;98628.34;5113581;28;19919;-87
2022/11/17 09:38:21;;;;;;;;;;;;;;;11.54;100.00;98626.78;5112979;28;20369;-87
2022/11/17 09:40:47;;;;;;;;;;;;;;;11.80;99.11;98612.63;5113369;28;19911;-87
2022/11/17 09:43:25;;;;;;;;;;;;;;;11.90;99.11;98610.50;5113631;28;20391;-87
2022/11/17 09:45:51;;;;;;;;;;;;;;;12.11;97.21;98598.28;5112976;28;19916;-88
2022/11/17 09:48:20;;;;;;;;;;;;;;;12.29;95.41;98583.47;5113006;28;19919;-88
2022/11/17 09:50:47;;;;;;;;;;;;;;;12.43;95.12;98566.19;5113009;28;19908;-88
2022/11/17 09:53:16;;;;;;;;;;;;;;;12.62;93.14;98548.66;5112598;28;20462;-87
2022/11/17 09:55:44;;;;;;;;;;;;;;;12.64;92.72;98544.16;5111703;28;20323;-88
2022/11/17 09:58:12;;;;;;;;;;;;;;;12.54;92.73;98524.28;5112612;28;19918;-88
2022/11/17 10:00:40;;;;;;;;;;;;;;;12.64;92.95;98511.56;5113432;28;19912;-87
2022/11/17 10:03:31;;;;;;;;;;;;;;;12.83;91.40;98498.38;5112645;28;20376;-89
2022/11/17 10:06:02;;;;;;;;;;;;;;;12.97;91.23;98482.75;5108516;28;19912;-87
2022/11/17 10:08:27;;;;;;;;;;;;;;;13.09;89.70;98449.59;5113177;28;19974;-87
2022/11/17 10:10:53;;;;;;;;;;;;;;;13.19;89.08;98445.59;5114785;28;20340;-88
2022/11/17 10:13:31;;;;;;;;;;;;;;;13.19;89.23;98442.09;5116892;28;19962;-87
2022/11/17 10:15:59;;;;;;;;;;;;;;;12.96;89.98;98448.41;5117140;28;19907;-87
2022/11/17 10:18:26;;;;;;;;;;;;;;;12.72;92.16;98469.75;5117066;28;20340;-88
2022/11/17 10:20:51;;;;;;;;;;;;;;;12.99;90.39;98462.38;5116610;28;19912;-86
2022/11/17 10:23:18;;;;;;;;;;;;;;;13.31;87.96;98473.28;5116572;28;19918;-88
2022/11/17 10:25:45;;;;;;;;;;;;;;;13.20;87.19;98484.38;5116823;28;19954;-89
2022/11/17 10:28:23;;;;;;;;;;;;;;;13.43;88.09;98482.53;5117302;28;19912;-91
2022/11/17 10:36:53;;;;;;;;;;;;;;;14.09;81.92;98475.91;5116628;28;19915;-90
2022/11/17 10:42:28;;;;;;;;;;;;;;;13.84;83.05;98463.81;5116495;28;19914;-90
2022/11/17 10:44:57;;;;;;;;;;;;;;;13.88;83.20;98452.13;5115983;28;19919;-90
2022/11/17 10:47:27;;;;;;;;;;;;;;;13.72;84.51;98454.66;5116173;28;20010;-88
2022/11/17 10:50:06;;;;;;;;;;;;;;;13.75;84.55;98466.91;5115988;28;20397;-88
2022/11/17 10:52:32;;;;;;;;;;;;;;;13.64;85.51;98459.47;5116042;28;19969;-89
2022/11/17 10:58:03;;;;;;;;;;;;;;;13.88;83.37;98446.81;5116324;28;19962;-87
2022/11/17 11:00:34;;;;;;;;;;;;;;;14.06;84.39;98449.53;5116035;28;19950;-88
2022/11/17 11:03:14;;;;;;;;;;;;;;;14.34;83.38;98454.31;5116384;28;20364;-88
2022/11/17 11:05:53;;;;;;;;;;;;;;;13.99;82.99;98446.31;5116203;28;19919;-88
2022/11/17 11:08:22;;;;;;;;;;;;;;;13.86;82.96;98450.50;5116022;28;19912;-88
2022/11/17 11:10:49;;;;;;;;;;;;;;;13.93;85.32;98457.19;5115604;28;19912;-86
2022/11/17 11:13:24;;;;;;;;;;;;;;;13.85;86.25;98452.28;5115636;28;20368;-89
2022/11/17 11:15:52;;;;;;;;;;;;;;;14.04;84.91;98465.50;5115643;28;19998;-89
2022/11/17 11:18:18;;;;;;;;;;;;;;;14.11;83.32;98461.59;5115828;28;20003;-88
2022/11/17 11:20:55;;;;;;;;;;;;;;;14.18;84.34;98466.63;5097455;28;20353;-89
2022/11/17 11:23:24;;;;;;;;;;;;;;;14.51;81.98;98472.88;5115036;28;19908;-89
2022/11/17 11:25:49;;;;;;;;;;;;;;;14.77;81.12;98468.09;5115811;28;20372;-86
2022/11/17 11:28:33;;;;;;;;;;;;;;;14.72;80.57;98470.13;5115880;28;19915;-88
2022/11/17 11:31:12;;;;;;;;;;;;;;;14.81;80.39;98471.44;5115894;28;19958;-86
2022/11/17 11:33:40;;;;;;;;;;;;;;;15.04;81.50;98460.50;5115544;28;19919;-86
2022/11/17 11:36:10;;;;;;;;;;;;;;;15.07;80.30;98461.25;5115088;28;19939;-88
2022/11/17 11:38:35;;;;;;;;;;;;;;;15.08;79.70;98466.47;5115463;28;19916;-89
2022/11/17 11:41:00;;;;;;;;;;;;;;;15.34;78.96;98459.78;5115028;28;19911;-88
2022/11/17 11:43:32;;;;;;;;;;;;;;;15.27;79.17;98463.69;5114880;28;19955;-89
2022/11/17 11:46:10;;;;;;;;;;;;;;;15.15;78.55;98461.69;5096389;28;19922;-89
2022/11/17 11:48:38;;;;;;;;;;;;;;;15.26;79.07;98477.06;5113380;28;20323;-88
2022/11/17 11:51:24;;;;;;;;;;;;;;;15.18;78.34;98473.03;5114964;28;20283;-88
2022/11/17 11:53:49;;;;;;;;;;;;;;;15.32;76.88;98476.72;5113834;28;20006;-88
2022/11/17 11:56:17;;;;;;;;;;;;;;;15.38;77.25;98469.31;5115405;28;19955;-89
2022/11/17 11:58:56;;;;;;;;;;;;;;;15.34;77.55;98461.59;5115277;28;19916;-89
2022/11/17 12:01:22;;;;;;;;;;;;;;;15.55;77.34;98456.88;5114878;28;19912;-88
2022/11/17 12:06:53;;;;;;;;;;;;;;;15.77;75.09;98469.88;5114596;28;20425;-87
2022/11/17 12:09:38;;;;;;;;;;;;;;;15.91;74.96;98475.28;5115185;28;19958;-89
2022/11/17 12:12:15;;;;;;;;;;;;;;;15.90;75.24;98470.06;5114017;28;20308;-84
2022/11/17 12:15:00;;;;;;;;;;;;;;;16.02;74.85;98453.41;5114884;28;19957;-84
2022/11/17 12:17:25;;;;;;;;;;;;;;;16.03;74.61;98456.91;5114405;28;19919;-85
2022/11/17 12:19:58;;;;;;;;;;;;;;;15.90;74.76;98462.06;5114642;28;19912;-83
2022/11/17 12:22:32;;;;;;;;;;;;;;;15.86;75.25;98460.53;5115000;28;20388;-84
2022/11/17 12:25:02;;;;;;;;;;;;;;;15.94;75.47;98471.56;5114311;28;19938;-84
2022/11/17 12:27:33;;;;;;;;;;;;;;;16.02;74.82;98464.03;5095892;28;19919;-86
2022/11/17 12:29:59;;;;;;;;;;;;;;;15.92;74.79;98457.50;5114381;28;20368;-83
2022/11/17 12:32:43;;;;;;;;;;;;;;;15.72;75.81;98456.81;5114300;28;19968;-88
2022/11/17 12:35:20;;;;;;;;;;;;;;;16.04;75.31;98455.97;5114815;28;19916;-87
2022/11/17 12:37:45;;;;;;;;;;;;;;;16.13;75.25;98458.09;5114354;28;20395;-86
2022/11/17 12:40:29;;;;;;;;;;;;;;;16.04;74.57;98469.28;5113961;28;19912;-87
2022/11/17 12:43:13;;;;;;;;;;;;;;;15.94;75.11;98468.91;5114320;28;19918;-87
2022/11/17 12:45:57;;;;;;;;;;;;;;;16.11;74.79;98465.28;5114132;28;19923;-88
2022/11/17 12:48:23;;;;;;;;;;;;;;;16.09;75.79;98473.38;5114259;28;19961;-86
2022/11/17 12:50:51;;;;;;;;;;;;;;;16.16;75.41;98465.91;5114574;28;19915;-88
2022/11/17 12:53:37;;;;;;;;;;;;;;;16.27;75.87;98463.47;5113975;28;19911;-87
2022/11/17 12:56:06;;;;;;;;;;;;;;;16.21;76.18;98470.97;5071776;28;19908;-88
2022/11/17 12:58:46;;;;;;;;;;;;;;;16.16;75.74;98473.00;5113019;28;20257;-87
2022/11/17 13:01:12;;;;;;;;;;;;;;;16.37;74.76;98473.59;5113657;28;20401;-85
2022/11/17 13:03:41;;;;;;;;;;;;;;;16.35;74.20;98472.81;5113419;28;19916;-88
2022/11/17 13:06:08;;;;;;;;;;;;;;;16.18;74.62;98477.31;5113511;28;19912;-88
2022/11/17 13:08:34;;;;;;;;;;;;;;;16.21;74.82;98474.47;5113661;28;19912;-88
2022/11/17 13:11:04;;;;;;;;;;;;;;;16.18;74.80;98473.81;5113914;28;20372;-87
2022/11/17 13:13:29;;;;;;;;;;;;;;;16.21;74.57;98469.16;5113526;28;19961;-86
2022/11/17 13:15:57;;;;;;;;;;;;;;;16.18;74.10;98458.69;5114343;28;19916;-88
2022/11/17 13:18:23;;;;;;;;;;;;;;;16.26;74.47;98476.88;5113407;28;19993;-88
2022/11/17 13:20:48;;;;;;;;;;;;;;;16.25;74.58;98481.34;5113486;28;19919;-87
2022/11/17 13:23:24;;;;;;;;;;;;;;;16.08;75.09;98481.44;5113077;28;19920;-87
2022/11/17 13:25:50;;;;;;;;;;;;;;;16.14;75.25;98482.91;5113876;28;19912;-87
2022/11/17 13:28:29;;;;;;;;;;;;;;;15.98;75.64;98485.56;5113528;28;19919;-87
2022/11/17 13:30:55;;;;;;;;;;;;;;;16.15;74.94;98497.91;5113370;28;20369;-87
2022/11/17 13:33:21;;;;;;;;;;;;;;;15.83;76.62;98501.41;5113483;28;19918;-87
2022/11/17 13:35:47;;;;;;;;;;;;;;;15.90;76.73;98507.28;5112979;28;20384;-86
2022/11/17 13:38:19;;;;;;;;;;;;;;;16.05;75.98;98506.41;5113050;28;20012;-89
2022/11/17 13:40:46;;;;;;;;;;;;;;;15.98;75.80;98504.19;5113585;28;19912;-87
2022/11/17 13:43:19;;;;;;;;;;;;;;;15.96;75.36;98501.63;5113349;28;19908;-87
2022/11/17 13:45:46;;;;;;;;;;;;;;;15.83;76.52;98503.22;5112715;28;20002;-87
2022/11/17 13:48:31;;;;;;;;;;;;;;;15.81;77.20;98505.13;5094930;28;20006;-87
2022/11/17 13:51:13;;;;;;;;;;;;;;;15.87;77.32;98502.97;5113251;28;19919;-86
2022/11/17 13:53:40;;;;;;;;;;;;;;;15.86;77.59;98509.22;5112963;28;19911;-86
2022/11/17 13:56:19;;;;;;;;;;;;;;;15.86;77.76;98511.88;5113190;28;19912;-86
2022/11/17 13:58:46;;;;;;;;;;;;;;;15.90;77.39;98512.59;5112705;28;19919;-88
2022/11/17 14:01:14;;;;;;;;;;;;;;;15.91;77.03;98514.28;5112647;28;19912;-88
2022/11/17 14:03:41;;;;;;;;;;;;;;;15.94;77.58;98522.09;5111680;28;20284;-88
2022/11/17 14:06:08;;;;;;;;;;;;;;;15.89;77.89;98517.03;5112746;28;19960;-87
2022/11/17 14:08:34;;;;;;;;;;;;;;;15.99;77.65;98517.41;5112981;28;20010;-87
2022/11/17 14:11:06;;;;;;;;;;;;;;;15.91;77.64;98508.97;5112391;28;19919;-88
2022/11/17 14:13:37;;;;;;;;;;;;;;;16.06;77.49;98508.13;5112959;28;20293;-88
2022/11/17 14:16:02;;;;;;;;;;;;;;;16.10;77.00;98514.13;5112493;28;19912;-86